Time;durP1;ratioP1;P1;durP2;ratioP2;P2;SDS_P1;SDS_P2;PMS_P1;PMS_P2;Temp;Humidity;BMP_temperature;BMP_pressure;BME280_temperature;BME280_humidity;BME280_pressure;Samples;Min_cycle;Max_cycle;Signal;HPM_P1;HPM_P2
2023/09/09 00:01:02;;;;;;;12.07;11.07;;;;;;;21.75;81.42;95829.00;5031377;28;20295;-85
2023/09/09 00:03:28;;;;;;;12.23;11.23;;;;;;;21.70;81.22;95832.34;5030479;28;20202;-85
2023/09/09 00:05:56;;;;;;;12.35;11.15;;;;;;;21.69;81.68;95841.25;5030515;28;20229;-85
2023/09/09 00:08:24;;;;;;;12.40;11.32;;;;;;;21.65;82.13;95845.38;5030301;28;20218;-86
2023/09/09 00:10:52;;;;;;;12.27;11.35;;;;;;;21.55;82.64;95859.09;5030265;28;20208;-85
2023/09/09 00:13:18;;;;;;;11.82;10.73;;;;;;;21.57;82.03;95851.78;5030104;28;20320;-85
2023/09/09 00:15:45;;;;;;;11.93;10.80;;;;;;;21.62;81.75;95851.88;5030150;28;20755;-85
2023/09/09 00:18:11;;;;;;;12.00;10.90;;;;;;;21.69;81.41;95834.19;5026831;28;20190;-85
2023/09/09 00:20:40;;;;;;;11.85;10.85;;;;;;;21.70;81.19;95821.88;5025067;28;20195;-85
2023/09/09 00:23:08;;;;;;;11.60;10.70;;;;;;;21.70;81.11;95817.41;5010274;28;20203;-85
2023/09/09 00:25:34;;;;;;;11.75;10.77;;;;;;;21.71;80.99;95815.59;5020097;28;20260;-85
2023/09/09 00:28:02;;;;;;;12.25;11.00;;;;;;;21.51;81.88;95837.03;5030379;28;20220;-84
2023/09/09 00:30:29;;;;;;;12.18;11.07;;;;;;;21.50;82.08;95842.53;5030115;28;20194;-85
2023/09/09 00:32:55;;;;;;;12.73;11.52;;;;;;;21.49;82.29;95835.69;5029791;28;20213;-85
2023/09/09 00:35:22;;;;;;;12.70;11.52;;;;;;;21.45;82.23;95840.63;5018926;28;20245;-86
2023/09/09 00:37:48;;;;;;;12.70;11.40;;;;;;;21.47;82.19;95843.78;5029505;28;20609;-85
2023/09/09 00:40:15;;;;;;;11.85;10.75;;;;;;;21.48;81.62;95832.28;5030575;28;20209;-85
2023/09/09 00:42:41;;;;;;;12.10;11.10;;;;;;;21.53;82.08;95832.38;5029687;28;20194;-85
2023/09/09 00:45:10;;;;;;;12.60;11.45;;;;;;;21.61;81.10;95823.28;5029274;28;20218;-85
2023/09/09 00:47:37;;;;;;;11.80;10.90;;;;;;;21.56;81.25;95826.63;5029802;28;20229;-85
2023/09/09 00:50:05;;;;;;;12.45;11.23;;;;;;;21.46;81.70;95821.25;5029773;28;20209;-85
2023/09/09 00:52:33;;;;;;;11.70;10.80;;;;;;;21.34;82.27;95837.06;5029604;28;20229;-85
2023/09/09 00:54:59;;;;;;;11.43;10.43;;;;;;;21.46;82.07;95834.34;5030017;28;20244;-85
2023/09/09 00:57:27;;;;;;;11.15;10.25;;;;;;;21.44;81.53;95819.88;5029972;28;20196;-85
2023/09/09 00:59:53;;;;;;;10.98;10.02;;;;;;;21.44;81.29;95814.66;5029837;28;20248;-85
2023/09/09 01:02:21;;;;;;;11.35;10.35;;;;;;;21.45;80.97;95809.16;5030060;28;20579;-85
2023/09/09 01:04:50;;;;;;;11.27;10.27;;;;;;;21.51;81.01;95804.81;5029055;28;20225;-85
2023/09/09 01:07:16;;;;;;;12.65;10.40;;;;;;;21.52;80.55;95801.97;5029777;28;20210;-85
2023/09/09 01:09:43;;;;;;;11.48;10.48;;;;;;;21.51;80.52;95796.94;5030405;28;20721;-85
2023/09/09 01:12:11;;;;;;;11.20;10.10;;;;;;;21.51;80.31;95794.34;5029637;28;20221;-86
2023/09/09 01:14:38;;;;;;;12.23;10.95;;;;;;;21.36;81.07;95810.59;5029350;28;20214;-85
2023/09/09 01:17:05;;;;;;;11.70;10.48;;;;;;;21.32;81.38;95815.53;5020600;28;20194;-85
2023/09/09 01:19:33;;;;;;;11.68;10.68;;;;;;;21.26;81.95;95821.72;5029954;28;20659;-86
2023/09/09 01:22:03;;;;;;;11.32;10.35;;;;;;;21.32;81.86;95823.41;5030338;28;20297;-85
2023/09/09 01:24:31;;;;;;;11.18;10.20;;;;;;;21.32;81.48;95812.91;5029443;28;20214;-86
2023/09/09 01:26:58;;;;;;;11.38;10.48;;;;;;;21.26;81.81;95811.25;5028915;28;20199;-85
2023/09/09 01:29:25;;;;;;;11.35;10.32;;;;;;;21.24;81.52;95815.91;5021130;28;20222;-85
2023/09/09 01:31:51;;;;;;;11.57;10.55;;;;;;;21.24;81.82;95813.28;5009744;28;20202;-85
2023/09/09 01:34:17;;;;;;;11.73;10.73;;;;;;;21.18;81.76;95821.25;5014121;28;20206;-85
2023/09/09 01:36:44;;;;;;;11.38;10.35;;;;;;;21.15;81.58;95819.16;5029262;28;20225;-85
2023/09/09 01:39:11;;;;;;;11.30;10.30;;;;;;;21.22;81.36;95804.09;5029783;28;20201;-85
2023/09/09 01:41:39;;;;;;;11.73;10.73;;;;;;;21.19;81.36;95813.19;5029020;28;20205;-85
2023/09/09 01:44:06;;;;;;;11.98;10.77;;;;;;;21.13;81.51;95808.91;5010664;28;20203;-84
2023/09/09 01:46:32;;;;;;;11.07;10.15;;;;;;;21.18;81.43;95813.41;5014458;28;20245;-84
2023/09/09 01:49:00;;;;;;;11.40;10.30;;;;;;;21.17;81.43;95807.38;5033203;28;20210;-84
2023/09/09 01:51:28;;;;;;;11.63;10.48;;;;;;;21.15;81.56;95812.09;5032911;28;20205;-84
2023/09/09 01:53:54;;;;;;;11.70;10.80;;;;;;;21.10;81.23;95805.97;5033301;28;20296;-84
2023/09/09 01:56:21;;;;;;;11.52;10.52;;;;;;;21.04;81.72;95813.72;5033030;28;20237;-84
2023/09/09 01:58:49;;;;;;;11.63;10.63;;;;;;;20.94;82.05;95820.63;5032960;28;20199;-84
2023/09/09 02:01:15;;;;;;;11.57;10.57;;;;;;;20.96;82.18;95821.97;5033107;28;20636;-84
2023/09/09 02:03:41;;;;;;;12.52;11.43;;;;;;;20.98;82.42;95821.72;5032443;28;20206;-84
2023/09/09 02:06:08;;;;;;;11.40;10.50;;;;;;;21.00;82.24;95822.28;5032876;28;20253;-84
2023/09/09 02:08:34;;;;;;;11.80;10.80;;;;;;;20.95;82.31;95822.22;5032434;28;20210;-85
2023/09/09 02:11:01;;;;;;;11.73;10.73;;;;;;;20.95;82.84;95836.09;5033011;28;20202;-84
2023/09/09 02:13:27;;;;;;;11.95;10.85;;;;;;;20.91;83.07;95837.59;5024059;28;20202;-84
2023/09/09 02:16:03;;;;;;;11.85;10.88;;;;;;;20.88;83.20;95842.50;5033043;28;20233;-84
2023/09/09 02:18:29;;;;;;;11.07;10.18;;;;;;;20.88;82.92;95840.66;5031575;28;20651;-84
2023/09/09 02:20:58;;;;;;;11.18;10.27;;;;;;;20.97;82.46;95828.00;5033258;28;20198;-85
2023/09/09 02:23:24;;;;;;;11.52;10.43;;;;;;;20.97;81.88;95817.53;5032698;28;20686;-84
2023/09/09 02:25:51;;;;;;;11.82;10.82;;;;;;;20.94;82.21;95818.00;5022780;28;20310;-84
2023/09/09 02:28:18;;;;;;;12.38;11.30;;;;;;;20.91;82.15;95819.25;5016054;28;20230;-85
2023/09/09 02:30:45;;;;;;;11.38;10.48;;;;;;;20.83;82.31;95817.00;5032675;28;20205;-84
2023/09/09 02:33:14;;;;;;;12.27;11.18;;;;;;;20.82;82.07;95818.03;5031960;28;20546;-85
2023/09/09 02:35:42;;;;;;;11.77;10.80;;;;;;;20.82;82.30;95819.88;5032853;28;20721;-85
2023/09/09 02:38:08;;;;;;;12.70;11.60;;;;;;;20.78;82.46;95821.38;5032990;28;20198;-84
2023/09/09 02:40:34;;;;;;;12.05;10.68;;;;;;;20.77;82.15;95823.22;5032699;28;20202;-84
2023/09/09 02:43:01;;;;;;;12.27;11.13;;;;;;;20.82;82.50;95825.91;5033180;28;20205;-85
2023/09/09 02:45:27;;;;;;;12.68;11.55;;;;;;;20.68;83.23;95830.63;5031778;28;20218;-84
2023/09/09 02:47:54;;;;;;;11.82;10.93;;;;;;;20.66;83.01;95832.69;5032695;28;20194;-85
2023/09/09 02:50:22;;;;;;;11.77;10.88;;;;;;;20.70;83.15;95833.00;5033875;28;20260;-85
2023/09/09 02:52:49;;;;;;;13.27;11.52;;;;;;;20.79;82.51;95825.56;5033085;28;20205;-84
2023/09/09 02:55:15;;;;;;;13.20;11.95;;;;;;;20.82;81.88;95823.28;5033140;28;20229;-84
2023/09/09 02:57:42;;;;;;;12.48;11.38;;;;;;;20.80;82.14;95822.72;5032750;28;20202;-84
2023/09/09 03:00:09;;;;;;;12.50;11.50;;;;;;;20.73;82.43;95823.91;5032703;28;20205;-84
2023/09/09 03:02:36;;;;;;;12.65;11.43;;;;;;;20.70;82.16;95827.78;5033274;28;20667;-84
2023/09/09 03:05:04;;;;;;;11.88;10.88;;;;;;;20.74;82.69;95825.50;5019296;28;20226;-84
2023/09/09 03:07:31;;;;;;;11.98;10.93;;;;;;;20.71;82.15;95818.91;5022469;28;20211;-84
2023/09/09 03:09:58;;;;;;;11.57;10.63;;;;;;;20.72;81.60;95815.25;5012727;28;20233;-84
2023/09/09 03:12:24;;;;;;;12.15;11.00;;;;;;;20.75;81.72;95806.16;5013558;28;20214;-84
2023/09/09 03:14:51;;;;;;;13.00;11.77;;;;;;;20.65;82.28;95807.53;5013622;28;20242;-84
2023/09/09 03:17:17;;;;;;;12.10;11.10;;;;;;;20.57;82.48;95817.59;5017823;28;20198;-83
2023/09/09 03:19:44;;;;;;;12.68;11.48;;;;;;;20.57;82.30;95822.81;5030909;28;20233;-84
2023/09/09 03:22:10;;;;;;;12.05;11.05;;;;;;;20.60;82.64;95828.38;5023061;28;20202;-84
2023/09/09 03:24:38;;;;;;;12.05;10.85;;;;;;;20.64;83.03;95823.47;5021011;28;20352;-84
2023/09/09 03:27:05;;;;;;;12.07;10.98;;;;;;;20.74;82.47;95821.06;5032600;28;20191;-84
2023/09/09 03:29:31;;;;;;;11.43;10.32;;;;;;;20.79;81.83;95807.25;5026599;28;20221;-83
2023/09/09 03:31:58;;;;;;;12.35;10.73;;;;;;;20.85;81.70;95803.69;5033183;28;20216;-84
2023/09/09 03:34:24;;;;;;;12.13;10.90;;;;;;;20.78;81.84;95801.25;5035470;28;20206;-85
2023/09/09 03:36:50;;;;;;;11.23;10.32;;;;;;;20.65;82.00;95812.78;5038946;28;20685;-84
2023/09/09 03:39:17;;;;;;;10.98;10.07;;;;;;;20.60;82.02;95812.66;5036200;28;20205;-85
2023/09/09 03:41:45;;;;;;;11.27;10.10;;;;;;;20.58;82.17;95819.97;5034966;28;20201;-83
2023/09/09 03:44:11;;;;;;;11.30;10.30;;;;;;;20.58;82.22;95817.38;5015653;28;20211;-84
2023/09/09 03:46:38;;;;;;;12.20;11.05;;;;;;;20.52;82.54;95827.97;5021896;28;20218;-83
2023/09/09 03:49:04;;;;;;;11.30;10.40;;;;;;;20.53;83.11;95832.16;5033653;28;20218;-85
2023/09/09 03:51:31;;;;;;;10.95;10.05;;;;;;;20.52;82.83;95835.81;5034978;28;20604;-84
2023/09/09 03:53:57;;;;;;;10.77;9.73;;;;;;;20.52;82.71;95835.81;5032897;28;20210;-84
2023/09/09 03:56:23;;;;;;;10.82;9.82;;;;;;;20.54;82.45;95824.09;5032139;28;20222;-84
2023/09/09 03:58:51;;;;;;;10.32;9.52;;;;;;;20.51;82.41;95827.16;5033534;28;20198;-83
2023/09/09 04:01:18;;;;;;;10.27;9.38;;;;;;;20.41;82.67;95832.19;5033689;28;20206;-85
2023/09/09 04:03:44;;;;;;;11.57;10.40;;;;;;;20.41;82.88;95832.19;5029381;28;20231;-84
2023/09/09 04:06:12;;;;;;;10.90;10.00;;;;;;;20.44;82.64;95826.50;5022784;28;20230;-85
2023/09/09 04:08:40;;;;;;;10.15;9.32;;;;;;;20.49;82.14;95826.59;5019051;28;20225;-85
2023/09/09 04:11:07;;;;;;;10.70;9.77;;;;;;;20.41;82.35;95820.91;5033795;28;20201;-83
2023/09/09 04:13:37;;;;;;;10.40;9.50;;;;;;;20.34;82.71;95828.88;5033483;28;20555;-85
2023/09/09 04:16:05;;;;;;;10.88;9.98;;;;;;;20.34;82.70;95827.06;5025628;28;20237;-85
2023/09/09 04:18:31;;;;;;;10.82;9.82;;;;;;;20.27;82.79;95829.00;5023049;28;20194;-84
2023/09/09 04:20:58;;;;;;;10.20;9.23;;;;;;;20.28;82.95;95830.59;5024083;28;20194;-84
2023/09/09 04:23:24;;;;;;;10.10;9.20;;;;;;;20.29;82.45;95826.16;5022432;28;20195;-84
2023/09/09 04:25:51;;;;;;;10.43;9.52;;;;;;;20.41;82.32;95831.38;5022885;28;20226;-84
2023/09/09 04:28:17;;;;;;;10.05;9.20;;;;;;;20.44;82.07;95825.69;5022401;28;20195;-84
2023/09/09 04:30:45;;;;;;;10.02;9.10;;;;;;;20.42;82.13;95825.91;5021129;28;20199;-84
2023/09/09 04:33:13;;;;;;;10.85;9.77;;;;;;;20.38;82.42;95826.63;5024978;28;20280;-84
2023/09/09 04:35:40;;;;;;;10.77;9.02;;;;;;;20.27;82.64;95839.47;5032468;28;20222;-84
2023/09/09 04:38:07;;;;;;;10.02;9.10;;;;;;;20.27;82.32;95847.31;5032885;28;20226;-85
2023/09/09 04:40:34;;;;;;;10.50;9.60;;;;;;;20.28;82.53;95837.66;5029234;28;20202;-83
2023/09/09 04:43:00;;;;;;;9.90;9.05;;;;;;;20.27;82.13;95834.22;5024274;28;20225;-85
2023/09/09 04:45:27;;;;;;;10.38;9.45;;;;;;;20.11;82.72;95844.63;5033438;28;20226;-83
2023/09/09 04:47:53;;;;;;;10.20;9.30;;;;;;;20.08;83.11;95850.28;5030609;28;20233;-84
2023/09/09 04:50:21;;;;;;;10.43;9.52;;;;;;;20.12;82.98;95861.88;5032878;28;20225;-84
2023/09/09 04:52:48;;;;;;;10.50;9.57;;;;;;;20.11;83.45;95857.69;5032790;28;20206;-84
2023/09/09 04:55:15;;;;;;;10.98;9.85;;;;;;;20.08;83.43;95861.53;5033536;28;20222;-85
2023/09/09 04:57:42;;;;;;;11.40;10.40;;;;;;;20.15;82.94;95862.22;5033061;28;20213;-84
2023/09/09 05:00:09;;;;;;;9.95;9.00;;;;;;;20.17;83.30;95860.19;5033567;28;20198;-84
2023/09/09 05:02:37;;;;;;;9.77;8.93;;;;;;;20.23;82.91;95864.47;5033169;28;20206;-84
2023/09/09 05:05:05;;;;;;;15.57;14.00;;;;;;;20.29;82.58;95854.94;5019842;28;20218;-84
2023/09/09 05:07:34;;;;;;;16.38;14.88;;;;;;;20.35;82.17;95844.34;5014461;28;20672;-84
2023/09/09 05:10:01;;;;;;;13.68;12.40;;;;;;;20.35;81.98;95846.97;5028962;28;20218;-84
2023/09/09 05:12:27;;;;;;;21.05;19.08;;;;;;;20.33;82.57;95846.41;5033329;28;20305;-84
2023/09/09 05:14:54;;;;;;;13.48;12.25;;;;;;;20.34;82.16;95841.97;5021215;28;20222;-85
2023/09/09 05:17:20;;;;;;;9.93;9.13;;;;;;;20.37;82.02;95840.75;5013126;28;20199;-84
2023/09/09 05:19:46;;;;;;;9.60;8.80;;;;;;;20.33;82.25;95851.63;5016113;28;20209;-84
2023/09/09 05:22:13;;;;;;;10.90;9.80;;;;;;;20.37;82.93;95875.53;5017386;28;20203;-84
2023/09/09 05:24:41;;;;;;;10.48;9.48;;;;;;;20.39;83.36;95886.56;5019967;28;20224;-84
2023/09/09 05:27:07;;;;;;;10.18;9.15;;;;;;;20.47;83.34;95883.59;5037155;28;20214;-84
2023/09/09 05:29:34;;;;;;;10.68;9.50;;;;;;;20.49;83.09;95885.97;5037131;28;20710;-84
2023/09/09 05:32:00;;;;;;;10.40;9.50;;;;;;;20.56;82.85;95891.88;5036922;28;20202;-84
2023/09/09 05:34:26;;;;;;;10.38;9.57;;;;;;;20.55;83.03;95892.91;5036868;28;20407;-85
2023/09/09 05:36:53;;;;;;;10.43;9.43;;;;;;;20.60;82.99;95890.38;5036697;28;20224;-84
2023/09/09 05:39:19;;;;;;;10.45;9.45;;;;;;;20.63;82.87;95888.09;5037929;28;20575;-84
2023/09/09 05:41:47;;;;;;;10.15;9.35;;;;;;;20.66;82.65;95886.84;5036992;28;20206;-84
2023/09/09 05:44:13;;;;;;;10.30;9.40;;;;;;;20.72;82.63;95887.72;5037327;28;20202;-84
2023/09/09 05:46:40;;;;;;;10.23;9.32;;;;;;;20.73;83.05;95892.75;5037436;28;20237;-84
2023/09/09 05:49:07;;;;;;;11.02;9.98;;;;;;;20.80;83.11;95892.59;5053255;28;20217;-84
2023/09/09 05:51:34;;;;;;;11.02;9.95;;;;;;;20.82;82.95;95896.56;5057642;28;20713;-83
2023/09/09 05:54:01;;;;;;;10.80;9.93;;;;;;;20.85;83.91;95921.47;5056307;28;20212;-84
2023/09/09 05:56:27;;;;;;;12.43;10.82;;;;;;;20.86;85.42;95942.19;5040147;28;20642;-84
2023/09/09 05:58:56;;;;;;;12.38;11.25;;;;;;;20.91;86.03;95955.38;5030306;28;20202;-84
2023/09/09 06:01:23;;;;;;;12.65;11.63;;;;;;;20.97;86.75;95972.00;5036770;28;20205;-84
2023/09/09 06:03:54;;;;;;;13.50;12.30;;;;;;;20.99;87.15;95983.81;5036052;28;20205;-84
2023/09/09 06:06:20;;;;;;;15.15;13.85;;;;;;;21.00;87.88;95990.63;5036568;28;20380;-84
2023/09/09 06:08:47;;;;;;;16.52;14.95;;;;;;;21.06;89.08;96001.22;5036684;28;20206;-84
2023/09/09 06:11:13;;;;;;;18.25;16.33;;;;;;;21.08;89.41;96001.78;5037049;28;20213;-84
2023/09/09 06:13:40;;;;;;;18.63;15.82;;;;;;;21.12;89.06;95995.84;5024920;28;20258;-84
2023/09/09 06:16:08;;;;;;;18.25;15.90;;;;;;;21.04;90.17;96009.31;5036648;28;20233;-84
2023/09/09 06:18:35;;;;;;;18.02;15.65;;;;;;;21.13;90.07;95997.44;5035792;28;20672;-84
2023/09/09 06:21:02;;;;;;;16.45;14.80;;;;;;;21.18;89.72;96002.75;5055905;28;20201;-84
2023/09/09 06:23:28;;;;;;;14.45;13.25;;;;;;;21.31;88.30;95978.97;5055165;28;20201;-84
2023/09/09 06:25:54;;;;;;;14.00;12.80;;;;;;;21.41;87.53;95967.06;5042861;28;20594;-85
2023/09/09 06:28:21;;;;;;;13.27;12.10;;;;;;;21.54;86.69;95959.75;5036033;28;20209;-84
2023/09/09 06:30:47;;;;;;;13.27;11.98;;;;;;;21.65;86.08;95945.75;5034998;28;20230;-84
2023/09/09 06:33:15;;;;;;;12.48;11.27;;;;;;;21.78;85.61;95936.00;5035698;28;20210;-85
2023/09/09 06:35:48;;;;;;;13.70;12.55;;;;;;;21.91;85.26;95938.31;5042851;28;20229;-84
2023/09/09 06:38:14;;;;;;;12.27;11.27;;;;;;;22.03;84.77;95925.94;5054631;28;20209;-85
2023/09/09 06:40:43;;;;;;;12.57;11.57;;;;;;;22.17;85.04;95936.88;5054788;28;20197;-84
2023/09/09 06:43:10;;;;;;;12.25;11.25;;;;;;;22.26;84.91;95945.94;5042940;28;20202;-84
2023/09/09 06:45:36;;;;;;;12.38;11.27;;;;;;;22.37;85.01;95950.28;5034087;28;20222;-84
2023/09/09 06:48:03;;;;;;;11.68;10.80;;;;;;;22.49;84.45;95937.88;5034885;28;20217;-84
2023/09/09 06:50:31;;;;;;;11.55;10.65;;;;;;;22.64;83.80;95934.66;5033338;28;20226;-84
2023/09/09 06:52:57;;;;;;;11.80;10.80;;;;;;;22.76;83.96;95924.81;5045229;28;20198;-85
2023/09/09 06:55:24;;;;;;;12.23;11.23;;;;;;;22.83;84.08;95932.53;5035808;28;20222;-84
2023/09/09 06:57:53;;;;;;;12.05;11.05;;;;;;;22.98;83.33;95920.38;5033971;28;20194;-83
2023/09/09 07:00:22;;;;;;;11.50;10.50;;;;;;;23.07;82.91;95911.03;5034231;28;20206;-84
2023/09/09 07:02:48;;;;;;;11.20;10.15;;;;;;;23.22;82.17;95902.50;5033791;28;20217;-85
2023/09/09 07:05:16;;;;;;;11.10;10.10;;;;;;;23.38;81.46;95887.66;5033776;28;21173;-84
2023/09/09 07:07:47;;;;;;;11.35;10.55;;;;;;;23.50;80.36;95877.78;5038612;28;20205;-84
2023/09/09 07:10:13;;;;;;;10.75;9.82;;;;;;;23.58;80.43;95879.19;5015033;28;20241;-85
2023/09/09 07:12:41;;;;;;;10.77;9.88;;;;;;;23.76;79.59;95863.81;5032904;28;20198;-84
2023/09/09 07:15:08;;;;;;;11.23;10.43;;;;;;;23.94;79.49;95856.56;5032864;28;20260;-84
2023/09/09 07:17:35;;;;;;;10.50;9.70;;;;;;;24.09;79.15;95854.03;5032411;28;20199;-84
2023/09/09 07:20:01;;;;;;;11.13;10.23;;;;;;;24.22;78.01;95837.00;5032301;28;20198;-84
2023/09/09 07:22:28;;;;;;;11.05;10.25;;;;;;;24.39;78.24;95835.81;5032078;28;20305;-84
2023/09/09 07:24:56;;;;;;;11.23;10.23;;;;;;;24.60;76.97;95817.44;5042627;28;20222;-84
2023/09/09 07:27:22;;;;;;;11.30;10.35;;;;;;;24.71;76.95;95809.31;5052408;28;20693;-85
2023/09/09 07:29:49;;;;;;;11.18;10.18;;;;;;;24.90;75.90;95796.44;5051044;28;20772;-84
2023/09/09 07:32:15;;;;;;;10.88;9.98;;;;;;;25.09;75.29;95767.75;5051490;28;20208;-84
2023/09/09 07:34:41;;;;;;;10.35;9.45;;;;;;;25.29;74.58;95761.69;5050390;28;20201;-84
2023/09/09 07:37:08;;;;;;;10.65;9.85;;;;;;;25.46;73.84;95736.63;5050900;28;20201;-84
2023/09/09 07:39:44;;;;;;;10.50;9.57;;;;;;;25.61;72.80;95719.97;5047468;28;20193;-85
2023/09/09 07:42:12;;;;;;;10.65;9.82;;;;;;;25.76;72.52;95706.81;5046512;28;20197;-84
2023/09/09 07:44:39;;;;;;;9.82;9.02;;;;;;;25.92;71.79;95707.53;5030536;28;20229;-84
2023/09/09 07:47:07;;;;;;;9.73;9.02;;;;;;;26.07;71.66;95688.19;5030511;28;20202;-84
2023/09/09 07:49:33;;;;;;;10.48;9.48;;;;;;;26.20;70.41;95677.03;5021390;28;20237;-83
2023/09/09 07:52:00;;;;;;;10.50;9.70;;;;;;;26.27;70.52;95679.38;5030318;28;20209;-85
2023/09/09 07:54:26;;;;;;;10.77;9.75;;;;;;;26.42;71.03;95685.38;5029659;28;20208;-84
2023/09/09 07:56:53;;;;;;;10.07;9.27;;;;;;;26.53;70.56;95677.41;5041780;28;20205;-84
2023/09/09 07:59:25;;;;;;;9.65;8.95;;;;;;;26.60;69.89;95667.31;5049962;28;20205;-84
2023/09/09 08:01:51;;;;;;;10.38;9.68;;;;;;;26.63;69.44;95651.69;5050088;28;20197;-84
2023/09/09 08:04:18;;;;;;;10.43;9.63;;;;;;;26.83;68.16;95622.47;5032113;28;20209;-83
2023/09/09 08:06:46;;;;;;;9.77;8.98;;;;;;;27.08;67.66;95610.13;5029944;28;20225;-84
2023/09/09 08:09:13;;;;;;;10.35;9.63;;;;;;;27.21;66.79;95590.94;5029916;28;20721;-84
2023/09/09 08:11:39;;;;;;;9.60;8.90;;;;;;;27.38;67.14;95591.28;5030786;28;20230;-84
2023/09/09 08:14:06;;;;;;;10.25;9.50;;;;;;;27.56;66.98;95597.66;5049764;28;20209;-84
2023/09/09 08:16:34;;;;;;;10.23;9.43;;;;;;;27.67;66.03;95564.78;5050012;28;20438;-84
2023/09/09 08:19:00;;;;;;;10.27;9.38;;;;;;;27.80;65.13;95542.09;5049011;28;20201;-84
2023/09/09 08:21:26;;;;;;;9.70;8.80;;;;;;;27.97;64.94;95531.00;5049874;28;20194;-84
2023/09/09 08:23:59;;;;;;;9.68;8.98;;;;;;;28.12;63.40;95499.78;5048816;28;20218;-85
2023/09/09 08:26:26;;;;;;;9.52;8.70;;;;;;;28.28;63.22;95473.88;5035665;28;20222;-84
2023/09/09 08:28:52;;;;;;;9.82;8.93;;;;;;;28.42;63.31;95482.63;5036282;28;20267;-84
2023/09/09 08:31:18;;;;;;;10.07;9.27;;;;;;;28.52;61.84;95450.66;5050489;28;20832;-84
2023/09/09 08:33:46;;;;;;;9.45;8.70;;;;;;;28.59;61.41;95429.09;5049991;28;20209;-84
2023/09/09 08:36:14;;;;;;;9.57;8.88;;;;;;;28.80;61.57;95450.72;5049697;28;20232;-84
2023/09/09 08:38:40;;;;;;;10.85;8.48;;;;;;;28.87;62.06;95448.44;5049864;28;20930;-84
2023/09/09 08:41:11;;;;;;;9.02;8.38;;;;;;;29.03;61.47;95448.94;5049612;28;20713;-83
2023/09/09 08:43:46;;;;;;;10.50;9.25;;;;;;;29.21;60.46;95403.72;5033543;28;20578;-84
2023/09/09 08:46:14;;;;;;;9.70;8.70;;;;;;;29.33;59.07;95354.66;5043496;28;20728;-84
2023/09/09 08:48:42;;;;;;;9.70;8.80;;;;;;;29.47;59.40;95339.50;5010046;28;20230;-85
2023/09/09 08:51:13;;;;;;;9.00;8.35;;;;;;;29.55;58.58;95342.22;5010222;28;20227;-85
2023/09/09 08:53:41;;;;;;;8.68;7.82;;;;;;;29.65;59.09;95333.19;5009790;28;20252;-84
2023/09/09 08:56:07;;;;;;;8.90;8.20;;;;;;;29.83;59.25;95356.09;5010371;28;20711;-83
2023/09/09 08:58:34;;;;;;;9.43;8.43;;;;;;;29.96;58.01;95309.34;5011246;28;20203;-84
2023/09/09 09:01:01;;;;;;;9.48;8.77;;;;;;;30.01;56.11;95240.19;5038423;28;20197;-82
2023/09/09 09:03:28;;;;;;;9.13;8.32;;;;;;;30.13;55.84;95228.97;5044563;28;20670;-82
2023/09/09 09:05:55;;;;;;;9.27;8.57;;;;;;;30.13;55.60;95207.72;5029164;28;20602;-83
2023/09/09 09:08:23;;;;;;;9.52;8.75;;;;;;;30.15;55.84;95218.84;5029329;28;20198;-82
2023/09/09 09:10:49;;;;;;;9.13;8.25;;;;;;;30.17;55.49;95208.69;5029605;28;20228;-84
2023/09/09 09:13:16;;;;;;;9.15;8.45;;;;;;;30.33;56.72;95252.31;5029306;28;20206;-84
2023/09/09 09:15:43;;;;;;;9.02;8.23;;;;;;;30.56;55.64;95213.13;5028513;28;20222;-85
2023/09/09 09:18:10;;;;;;;8.70;7.90;;;;;;;30.69;55.58;95216.72;5047292;28;20201;-84
2023/09/09 09:20:38;;;;;;;9.07;8.38;;;;;;;30.87;55.64;95208.44;5050019;28;20197;-84
2023/09/09 09:23:06;;;;;;;9.27;8.57;;;;;;;30.94;54.63;95176.06;5049258;28;20210;-84
2023/09/09 09:25:41;;;;;;;8.52;7.78;;;;;;;31.00;54.77;95179.31;5039527;28;20862;-83
2023/09/09 09:28:08;;;;;;;8.85;7.97;;;;;;;31.05;54.14;95140.03;5029843;28;20209;-82
2023/09/09 09:30:35;;;;;;;9.30;8.50;;;;;;;31.12;54.20;95150.25;5028997;28;20232;-84
2023/09/09 09:33:02;;;;;;;9.38;8.50;;;;;;;31.12;53.98;95136.94;5035960;28;20204;-84
2023/09/09 09:35:29;;;;;;;9.15;8.25;;;;;;;31.18;53.55;95131.09;5048516;28;20233;-84
2023/09/09 09:37:59;;;;;;;9.35;8.60;;;;;;;31.03;51.70;95040.38;5048527;28;20239;-84
2023/09/09 09:40:26;;;;;;;9.02;8.32;;;;;;;30.97;52.50;95058.44;5042695;28;20190;-83
2023/09/09 09:42:55;;;;;;;9.13;8.43;;;;;;;30.82;53.60;95101.47;5019241;28;20233;-83
2023/09/09 09:45:25;;;;;;;9.30;8.57;;;;;;;30.83;53.28;95095.03;5008771;28;20665;-83
2023/09/09 09:47:52;;;;;;;9.07;8.27;;;;;;;30.94;53.03;95098.16;5008864;28;20203;-84
2023/09/09 09:50:22;;;;;;;9.65;8.80;;;;;;;30.99;53.05;95108.59;5044387;28;20236;-84
2023/09/09 09:52:49;;;;;;;9.43;8.82;;;;;;;30.85;52.61;95076.91;5048142;28;20903;-84
2023/09/09 09:55:19;;;;;;;8.80;8.00;;;;;;;30.83;53.03;95103.81;5044025;28;20218;-84
2023/09/09 09:57:46;;;;;;;9.38;8.52;;;;;;;30.89;53.35;95115.06;4977064;28;20686;-83
2023/09/09 10:00:16;;;;;;;9.25;8.55;;;;;;;30.68;53.16;95104.31;5019532;28;20209;-84
2023/09/09 10:02:43;;;;;;;9.65;8.73;;;;;;;30.71;53.38;95100.25;5028803;28;20213;-83
2023/09/09 10:05:13;;;;;;;8.77;7.97;;;;;;;30.63;53.74;95111.66;5033719;28;20217;-84
2023/09/09 10:07:43;;;;;;;9.45;8.63;;;;;;;30.71;54.40;95146.22;5051842;28;20209;-85
2023/09/09 10:10:13;;;;;;;9.45;8.75;;;;;;;30.68;54.12;95136.19;5035748;28;20243;-84
2023/09/09 10:12:46;;;;;;;9.23;8.52;;;;;;;30.66;53.44;95116.34;5031682;28;20212;-83
2023/09/09 10:15:13;;;;;;;8.48;7.70;;;;;;;30.77;54.44;95147.63;5032010;28;20249;-84
2023/09/09 10:17:43;;;;;;;10.30;9.30;;;;;;;30.95;54.28;95137.72;5031364;28;20576;-84
2023/09/09 10:20:12;;;;;;;10.30;8.82;;;;;;;30.98;53.24;95110.50;5031489;28;20205;-85
2023/09/09 10:22:40;;;;;;;9.38;8.57;;;;;;;31.00;53.10;95100.31;5048570;28;20213;-84
2023/09/09 10:25:10;;;;;;;9.50;8.60;;;;;;;30.84;52.69;95054.84;5045316;28;20214;-84
2023/09/09 10:27:38;;;;;;;9.68;8.93;;;;;;;30.75;52.58;95064.75;5031655;28;20580;-84
2023/09/09 10:30:07;;;;;;;8.88;8.15;;;;;;;30.88;52.45;95057.66;5031706;28;20555;-84
2023/09/09 10:32:35;;;;;;;8.75;8.05;;;;;;;30.97;52.35;95053.09;5030182;28;20201;-85
2023/09/09 10:35:05;;;;;;;9.43;8.25;;;;;;;30.98;52.69;95065.31;5031283;28;20230;-84
2023/09/09 10:37:34;;;;;;;8.70;8.00;;;;;;;31.04;53.33;95090.59;5036871;28;20202;-84
2023/09/09 10:40:03;;;;;;;9.00;8.35;;;;;;;31.10;53.40;95107.97;5049791;28;20209;-84
2023/09/09 10:42:31;;;;;;;13.35;12.13;;;;;;;30.62;52.33;95022.38;5045109;28;20260;-85
2023/09/09 10:45:18;;;;;;;9.68;8.82;;;;;;;30.40;53.67;95082.59;5031039;28;20309;-84
2023/09/09 10:47:54;;;;;;;9.52;8.50;;;;;;;30.49;53.59;95101.19;5031228;28;20214;-85
2023/09/09 10:50:21;;;;;;;9.90;9.15;;;;;;;30.42;53.69;95090.22;5031294;28;20578;-84
2023/09/09 10:52:47;;;;;;;9.00;8.40;;;;;;;30.49;53.20;95069.28;5030216;28;20237;-84
2023/09/09 10:55:14;;;;;;;8.60;7.90;;;;;;;30.56;52.97;95057.13;5050726;28;20252;-84
2023/09/09 10:57:40;;;;;;;8.65;8.05;;;;;;;30.69;53.24;95068.66;5051009;28;20210;-84
2023/09/09 11:00:10;;;;;;;8.80;7.88;;;;;;;30.85;53.38;95082.22;5050861;28;20205;-84
2023/09/09 11:02:46;;;;;;;10.05;9.25;;;;;;;30.78;52.31;95020.78;5032392;28;20202;-85
2023/09/09 11:05:16;;;;;;;8.63;7.93;;;;;;;30.76;52.60;95033.63;5030753;28;20702;-84
2023/09/09 11:07:43;;;;;;;8.75;8.15;;;;;;;30.86;52.58;95062.50;5031155;28;20209;-85
2023/09/09 11:10:15;;;;;;;8.68;8.00;;;;;;;30.99;52.70;95058.84;5040383;28;20201;-85
2023/09/09 11:12:50;;;;;;;8.57;7.97;;;;;;;31.08;52.30;95026.94;5050319;28;20582;-85
2023/09/09 11:15:16;;;;;;;9.45;8.68;;;;;;;30.90;51.79;94997.75;5050872;28;20221;-84
2023/09/09 11:17:43;;;;;;;8.90;8.10;;;;;;;30.84;51.17;94991.03;5049360;28;20198;-84
2023/09/09 11:20:11;;;;;;;8.32;7.80;;;;;;;30.91;51.11;94977.25;5050830;28;20205;-84
2023/09/09 11:22:39;;;;;;;9.00;8.20;;;;;;;30.90;51.46;94989.78;5050377;28;20197;-84
2023/09/09 11:25:07;;;;;;;8.88;8.07;;;;;;;30.91;50.82;94948.00;5043851;28;20289;-83